Time;durP1;ratioP1;P1;durP2;ratioP2;P2;SDS_P1;SDS_P2;PMS_P1;PMS_P2;Temp;Humidity;BMP_temperature;BMP_pressure;BME280_temperature;BME280_humidity;BME280_pressure;Samples;Min_cycle;Max_cycle;Signal;HPM_P1;HPM_P2
2023/04/13 00:01:12;;;;;;;;;;;;;;;12.19;40.51;99425.19;5341450;32;33394;-70
2023/04/13 00:04:14;;;;;;;;;;;;;;;12.52;40.65;99419.63;5336608;32;44776;-69
2023/04/13 00:07:17;;;;;;;;;;;;;;;13.46;38.57;99419.75;5357675;32;33404;-69
2023/04/13 00:10:19;;;;;;;;;;;;;;;12.74;39.82;99416.47;5339977;32;33841;-70
2023/04/13 00:13:23;;;;;;;;;;;;;;;11.80;42.17;99424.00;5350467;32;34549;-69
2023/04/13 00:16:28;;;;;;;;;;;;;;;11.69;42.88;99425.56;5341083;32;35710;-70
2023/04/13 00:19:32;;;;;;;;;;;;;;;11.69;42.14;99421.13;5342797;32;33051;-68
2023/04/13 00:22:35;;;;;;;;;;;;;;;11.49;42.58;99422.31;5349072;32;33337;-68
2023/04/13 00:25:37;;;;;;;;;;;;;;;11.30;43.09;99425.16;5340330;32;34431;-67
2023/04/13 00:28:39;;;;;;;;;;;;;;;11.40;42.45;99414.97;5346527;32;34599;-68
2023/04/13 00:31:41;;;;;;;;;;;;;;;11.31;43.47;99423.34;5319734;32;44682;-68
2023/04/13 00:34:44;;;;;;;;;;;;;;;11.43;43.57;99411.28;5346099;32;33555;-69
2023/04/13 00:37:48;;;;;;;;;;;;;;;11.60;43.17;99416.44;5334566;32;33179;-68
2023/04/13 00:40:50;;;;;;;;;;;;;;;11.83;42.73;99415.09;5339125;32;34530;-68
2023/04/13 00:43:52;;;;;;;;;;;;;;;11.59;42.94;99415.59;5343184;32;33215;-69
2023/04/13 00:46:55;;;;;;;;;;;;;;;11.52;42.68;99408.94;5334389;32;34698;-69
2023/04/13 00:49:59;;;;;;;;;;;;;;;12.14;41.16;99412.28;5341463;32;34505;-70
2023/04/13 00:53:00;;;;;;;;;;;;;;;12.25;41.42;99400.28;5334882;32;32479;-69
2023/04/13 00:56:04;;;;;;;;;;;;;;;12.31;40.90;99398.09;5344662;32;33611;-67
2023/04/13 00:59:06;;;;;;;;;;;;;;;12.54;39.49;99401.09;5333795;32;32511;-69
2023/04/13 01:02:08;;;;;;;;;;;;;;;11.91;41.89;99405.81;5340234;32;33183;-68
2023/04/13 01:05:11;;;;;;;;;;;;;;;11.97;42.45;99399.28;5341698;32;42615;-70
2023/04/13 01:08:16;;;;;;;;;;;;;;;11.93;38.73;99388.12;5336259;32;34734;-70
2023/04/13 01:11:25;;;;;;;;;;;;;;;11.67;41.90;99404.59;5355069;32;33326;-68
2023/04/13 01:14:38;;;;;;;;;;;;;;;11.85;42.47;99400.03;5344873;32;33387;-70
2023/04/13 01:17:40;;;;;;;;;;;;;;;12.61;40.66;99402.38;5342006;32;35636;-67
2023/04/13 01:20:43;;;;;;;;;;;;;;;11.84;42.34;99399.19;5342524;32;44229;-68
2023/04/13 01:24:04;;;;;;;;;;;;;;;12.30;40.50;99396.41;5339178;32;34678;-70
2023/04/13 01:27:14;;;;;;;;;;;;;;;11.58;43.17;99402.50;5349395;32;34437;-69
2023/04/13 01:30:21;;;;;;;;;;;;;;;11.88;42.23;99395.44;5330611;32;46665;-69
2023/04/13 01:33:24;;;;;;;;;;;;;;;11.82;39.38;99393.19;5332179;32;33377;-69
2023/04/13 01:36:26;;;;;;;;;;;;;;;11.71;42.48;99398.19;5338445;32;34588;-68
2023/04/13 01:39:30;;;;;;;;;;;;;;;12.25;41.48;99392.38;5334532;32;33280;-69
2023/04/13 01:42:32;;;;;;;;;;;;;;;11.58;43.28;99395.44;5340703;32;34657;-69
2023/04/13 01:45:44;;;;;;;;;;;;;;;11.87;42.89;99399.03;5336945;32;33114;-69
2023/04/13 01:48:51;;;;;;;;;;;;;;;12.29;41.98;99383.31;5347335;32;48273;-69
2023/04/13 01:51:53;;;;;;;;;;;;;;;12.53;41.85;99392.34;5339945;32;33226;-69
2023/04/13 01:54:55;;;;;;;;;;;;;;;12.09;43.33;99402.97;5343478;32;33228;-68
2023/04/13 01:57:57;;;;;;;;;;;;;;;12.00;43.50;99400.91;5338138;32;33281;-70
2023/04/13 02:00:59;;;;;;;;;;;;;;;12.31;43.11;99397.25;5338065;32;34466;-68
2023/04/13 02:04:02;;;;;;;;;;;;;;;12.50;42.90;99407.50;5346999;32;33344;-69
2023/04/13 02:07:04;;;;;;;;;;;;;;;12.47;42.63;99401.47;5343385;32;33227;-70
2023/04/13 02:10:06;;;;;;;;;;;;;;;12.27;37.92;99408.91;5347443;32;33327;-68
2023/04/13 02:13:08;;;;;;;;;;;;;;;12.11;42.62;99401.97;5341581;32;34611;-67
2023/04/13 02:16:10;;;;;;;;;;;;;;;12.01;43.93;99402.59;5339785;32;41645;-69
2023/04/13 02:19:12;;;;;;;;;;;;;;;12.64;38.46;99378.47;5344332;32;35019;-70
2023/04/13 02:22:15;;;;;;;;;;;;;;;13.06;35.67;99392.47;5338803;32;33165;-71
2023/04/13 02:25:17;;;;;;;;;;;;;;;13.91;33.40;99399.13;5350435;32;33870;-68
2023/04/13 02:28:19;;;;;;;;;;;;;;;13.65;32.93;99398.25;5342737;32;34748;-70
2023/04/13 02:31:22;;;;;;;;;;;;;;;12.74;34.76;99398.03;5329888;32;33296;-71
2023/04/13 02:34:24;;;;;;;;;;;;;;;13.67;33.46;99399.87;5342433;32;33173;-69
2023/04/13 02:37:28;;;;;;;;;;;;;;;14.10;32.20;99399.56;5348667;32;33273;-68
2023/04/13 02:40:30;;;;;;;;;;;;;;;13.78;32.94;99404.41;5346294;32;33219;-68
2023/04/13 02:43:33;;;;;;;;;;;;;;;13.89;32.62;99404.53;5342855;32;33388;-69
2023/04/13 02:46:35;;;;;;;;;;;;;;;13.73;32.99;99399.44;5344395;32;33258;-68
2023/04/13 02:49:37;;;;;;;;;;;;;;;13.86;32.67;99401.28;5340714;32;35516;-69
2023/04/13 02:52:39;;;;;;;;;;;;;;;13.73;32.40;99395.97;5345377;32;33200;-69
2023/04/13 02:55:41;;;;;;;;;;;;;;;13.64;32.12;99396.56;5337696;32;44398;-69
2023/04/13 02:58:43;;;;;;;;;;;;;;;13.51;32.41;99399.19;5345026;32;34178;-68
2023/04/13 03:01:46;;;;;;;;;;;;;;;13.75;32.06;99400.19;5346715;32;34930;-68
2023/04/13 03:04:49;;;;;;;;;;;;;;;12.92;33.58;99404.75;5343718;32;33238;-68
2023/04/13 03:07:51;;;;;;;;;;;;;;;12.16;34.22;99396.41;5355102;32;34561;-69
2023/04/13 03:10:53;;;;;;;;;;;;;;;12.87;33.67;99403.38;5339200;32;33738;-69
2023/04/13 03:13:57;;;;;;;;;;;;;;;13.14;32.95;99395.50;5352773;32;34617;-69
2023/04/13 03:17:00;;;;;;;;;;;;;;;12.90;33.15;99392.63;5334455;32;33128;-68
2023/04/13 03:20:08;;;;;;;;;;;;;;;13.32;32.60;99396.06;5341405;32;33496;-69
2023/04/13 03:23:10;;;;;;;;;;;;;;;13.22;32.89;99390.56;5351394;32;34571;-69
2023/04/13 03:26:12;;;;;;;;;;;;;;;13.73;31.83;99388.88;5335943;32;44557;-68
2023/04/13 03:29:14;;;;;;;;;;;;;;;13.75;31.56;99386.97;5344923;32;32675;-68
2023/04/13 03:32:16;;;;;;;;;;;;;;;12.69;32.65;99374.63;5326292;32;34718;-68
2023/04/13 03:35:18;;;;;;;;;;;;;;;13.19;31.93;99380.19;5348410;32;34458;-67
2023/04/13 03:38:20;;;;;;;;;;;;;;;13.65;31.25;99375.34;5343186;32;34016;-70
2023/04/13 03:41:22;;;;;;;;;;;;;;;13.48;31.58;99380.94;5321222;32;34517;-68
2023/04/13 03:44:24;;;;;;;;;;;;;;;13.00;32.38;99381.38;5346854;32;33197;-69
2023/04/13 03:47:26;;;;;;;;;;;;;;;13.64;31.39;99381.56;5337812;32;32556;-70
2023/04/13 03:50:28;;;;;;;;;;;;;;;13.44;31.75;99379.44;5349160;32;33303;-70
2023/04/13 03:53:30;;;;;;;;;;;;;;;13.26;32.01;99384.97;5341617;32;33268;-69
2023/04/13 03:56:32;;;;;;;;;;;;;;;13.23;32.23;99384.34;5352141;32;33191;-69
2023/04/13 03:59:33;;;;;;;;;;;;;;;13.35;31.98;99388.81;5343202;32;31628;-68
2023/04/13 04:02:36;;;;;;;;;;;;;;;13.37;31.91;99379.00;5326685;32;34934;-68
2023/04/13 04:05:39;;;;;;;;;;;;;;;13.63;31.67;99379.88;5343396;32;33109;-69
2023/04/13 04:08:42;;;;;;;;;;;;;;;13.07;32.41;99384.47;5341432;32;46646;-71
2023/04/13 04:11:44;;;;;;;;;;;;;;;13.38;31.70;99385.13;5350542;32;33308;-70
2023/04/13 04:14:47;;;;;;;;;;;;;;;13.71;31.15;99393.41;5340188;32;36107;-69
2023/04/13 04:17:49;;;;;;;;;;;;;;;13.62;31.25;99394.03;5349047;32;34420;-70
2023/04/13 04:20:51;;;;;;;;;;;;;;;13.08;32.15;99388.81;5332759;32;34657;-69
2023/04/13 04:23:53;;;;;;;;;;;;;;;12.93;32.91;99395.91;5340967;32;34471;-68
2023/04/13 04:26:56;;;;;;;;;;;;;;;13.12;32.63;99389.44;5349683;32;33401;-70
2023/04/13 04:29:59;;;;;;;;;;;;;;;13.53;31.91;99377.03;5330099;32;34419;-70
2023/04/13 04:33:01;;;;;;;;;;;;;;;13.06;33.01;99395.97;5345009;32;34845;-69
2023/04/13 04:36:08;;;;;;;;;;;;;;;12.62;33.87;99397.03;5337446;32;34402;-71
2023/04/13 04:39:12;;;;;;;;;;;;;;;12.59;34.11;99397.22;5350190;32;43471;-67
2023/04/13 04:42:17;;;;;;;;;;;;;;;12.74;33.89;99398.87;5340337;32;35574;-69
2023/04/13 04:45:19;;;;;;;;;;;;;;;12.27;34.40;99401.00;5332628;32;34573;-68
2023/04/13 04:48:23;;;;;;;;;;;;;;;12.51;34.26;99399.50;5349145;32;33153;-69
2023/04/13 04:51:26;;;;;;;;;;;;;;;12.36;34.68;99398.63;5336854;32;33224;-69
2023/04/13 04:54:28;;;;;;;;;;;;;;;12.42;34.73;99400.91;5352266;32;33948;-68
2023/04/13 04:57:34;;;;;;;;;;;;;;;12.84;33.52;99400.94;5336241;32;34539;-69
2023/04/13 05:00:37;;;;;;;;;;;;;;;12.94;33.24;99399.37;5350567;32;34664;-68
2023/04/13 05:03:38;;;;;;;;;;;;;;;13.60;32.29;99390.66;5354968;32;33414;-66
2023/04/13 05:06:40;;;;;;;;;;;;;;;13.97;31.60;99383.72;5340526;32;43013;-69
2023/04/13 05:09:43;;;;;;;;;;;;;;;13.80;31.89;99402.53;5352696;32;33132;-69
2023/04/13 05:12:44;;;;;;;;;;;;;;;13.94;31.58;99397.13;5340858;32;34469;-69
2023/04/13 05:15:46;;;;;;;;;;;;;;;13.96;31.59;99389.94;5351065;32;32994;-68
2023/04/13 05:18:48;;;;;;;;;;;;;;;13.91;31.40;99393.84;5333466;32;34516;-69
2023/04/13 05:21:50;;;;;;;;;;;;;;;14.34;30.87;99386.44;5344425;32;34579;-69
2023/04/13 05:24:52;;;;;;;;;;;;;;;13.26;32.78;99381.50;5352509;32;33238;-69
2023/04/13 05:27:55;;;;;;;;;;;;;;;14.11;31.20;99381.94;5340210;32;33272;-67
2023/04/13 05:31:03;;;;;;;;;;;;;;;14.36;31.17;99389.81;5335881;32;33233;-68
2023/04/13 05:34:05;;;;;;;;;;;;;;;14.26;31.38;99394.06;5336685;32;34879;-68
2023/04/13 05:37:09;;;;;;;;;;;;;;;13.26;32.90;99378.84;5350937;32;33211;-69
2023/04/13 05:40:13;;;;;;;;;;;;;;;12.74;34.05;99406.78;5341327;32;44673;-77
2023/04/13 05:43:15;;;;;;;;;;;;;;;14.08;32.13;99382.97;5340739;32;34951;-76
2023/04/13 05:46:17;;;;;;;;;;;;;;;14.15;31.82;99401.88;5345578;32;34440;-66
2023/04/13 05:49:19;;;;;;;;;;;;;;;14.14;32.11;99392.28;5342650;32;35212;-67
2023/04/13 05:52:21;;;;;;;;;;;;;;;14.97;30.64;99388.09;5349001;32;31817;-81
2023/04/13 05:55:24;;;;;;;;;;;;;;;14.91;30.85;99396.50;5347689;32;33239;-65
2023/04/13 05:58:26;;;;;;;;;;;;;;;15.05;30.39;99392.81;5350843;32;33267;-69
2023/04/13 06:01:28;;;;;;;;;;;;;;;14.84;30.55;99389.97;5341801;32;33106;-68
2023/04/13 06:04:30;;;;;;;;;;;;;;;13.52;32.79;99398.25;5342829;32;33141;-63
2023/04/13 06:07:33;;;;;;;;;;;;;;;14.05;32.02;99396.41;5344538;32;35830;-73
2023/04/13 06:10:35;;;;;;;;;;;;;;;15.25;30.23;99394.00;5335878;32;33538;-61
2023/04/13 06:13:40;;;;;;;;;;;;;;;14.85;30.85;99402.22;5351398;32;34352;-62
2023/04/13 06:16:42;;;;;;;;;;;;;;;14.30;31.74;99411.41;5348191;32;44394;-64
2023/04/13 06:19:53;;;;;;;;;;;;;;;13.68;32.66;99403.34;5354082;32;35129;-68
2023/04/13 06:22:56;;;;;;;;;;;;;;;14.13;31.90;99399.34;5348307;32;32327;-68
2023/04/13 06:25:58;;;;;;;;;;;;;;;14.97;30.70;99396.03;5345813;32;33606;-72
2023/04/13 06:29:01;;;;;;;;;;;;;;;14.47;31.44;99379.34;5356855;32;35127;-65
2023/04/13 06:32:03;;;;;;;;;;;;;;;14.89;31.36;99406.34;5324994;32;33241;-63
2023/04/13 06:35:05;;;;;;;;;;;;;;;15.33;30.43;99400.44;5339388;32;33786;-63
2023/04/13 06:38:08;;;;;;;;;;;;;;;15.57;30.36;99407.50;5337955;32;34265;-73
2023/04/13 06:41:11;;;;;;;;;;;;;;;16.29;29.10;99408.13;5348463;32;44424;-72
2023/04/13 06:44:13;;;;;;;;;;;;;;;15.38;30.49;99405.38;5340221;32;33712;-72
2023/04/13 06:47:15;;;;;;;;;;;;;;;16.70;28.50;99398.78;5345262;32;34337;-65
2023/04/13 06:50:17;;;;;;;;;;;;;;;15.50;30.11;99406.25;5351615;32;34350;-81
2023/04/13 06:53:19;;;;;;;;;;;;;;;16.67;28.40;99405.13;5348913;32;33349;-80
2023/04/13 06:56:21;;;;;;;;;;;;;;;16.48;28.85;99402.22;5350604;32;33267;-80
2023/04/13 06:59:23;;;;;;;;;;;;;;;16.00;29.64;99412.22;5342319;32;33342;-77
2023/04/13 07:02:25;;;;;;;;;;;;;;;16.43;29.13;99405.28;5346509;32;36348;-67
2023/04/13 07:05:28;;;;;;;;;;;;;;;16.56;28.71;99405.16;5351335;32;33794;-75
2023/04/13 07:08:31;;;;;;;;;;;;;;;17.36;27.79;99415.50;5344502;32;34555;-82
2023/04/13 07:11:33;;;;;;;;;;;;;;;16.65;28.92;99414.16;5352088;32;33406;-75
2023/04/13 07:14:37;;;;;;;;;;;;;;;16.10;29.36;99423.78;5345823;32;34314;-75
2023/04/13 07:17:40;;;;;;;;;;;;;;;16.76;28.61;99414.19;5360031;32;32660;-84
2023/04/13 07:20:42;;;;;;;;;;;;;;;16.51;28.93;99408.16;5351892;32;45460;-71
2023/04/13 07:23:44;;;;;;;;;;;;;;;15.52;30.37;99429.03;5341773;32;36268;-85
2023/04/13 07:26:46;;;;;;;;;;;;;;;15.23;30.90;99423.25;5345664;32;33177;-79
2023/04/13 07:29:51;;;;;;;;;;;;;;;16.46;29.34;99426.22;5337230;32;33037;-75
2023/04/13 07:32:53;;;;;;;;;;;;;;;16.38;29.61;99422.50;5335904;32;34462;-66
2023/04/13 07:35:56;;;;;;;;;;;;;;;16.44;29.79;99422.03;5350627;32;34439;-72
2023/04/13 07:38:57;;;;;;;;;;;;;;;15.56;31.60;99425.19;5349062;32;33665;-69
2023/04/13 07:42:00;;;;;;;;;;;;;;;16.91;29.47;99409.47;5351020;32;33281;-72
2023/04/13 07:45:03;;;;;;;;;;;;;;;16.82;29.60;99411.06;5353203;32;32573;-73
2023/04/13 07:48:05;;;;;;;;;;;;;;;17.39;29.17;99417.03;5358029;32;34549;-68
2023/04/13 07:51:28;;;;;;;;;;;;;;;17.48;28.89;99410.97;5352767;32;35080;-79
2023/04/13 07:54:30;;;;;;;;;;;;;;;19.11;26.50;99393.31;5356536;32;34354;-66
2023/04/13 07:57:32;;;;;;;;;;;;;;;18.66;27.32;99409.72;5347251;32;34955;-67
2023/04/13 08:00:34;;;;;;;;;;;;;;;20.08;25.49;99404.78;5354511;32;31840;-73
2023/04/13 08:03:36;;;;;;;;;;;;;;;19.28;26.44;99407.78;5353352;32;33305;-69
2023/04/13 08:06:38;;;;;;;;;;;;;;;20.17;25.00;99417.28;5348969;32;35902;-71
2023/04/13 08:09:41;;;;;;;;;;;;;;;19.19;26.34;99404.13;5351655;32;42541;-68
2023/04/13 08:12:43;;;;;;;;;;;;;;;18.67;27.09;99414.09;5344930;32;33693;-71
2023/04/13 08:15:45;;;;;;;;;;;;;;;19.56;26.28;99400.78;5349452;32;33010;-77
2023/04/13 08:18:47;;;;;;;;;;;;;;;20.44;25.04;99415.66;5347072;32;33235;-69
2023/04/13 08:21:50;;;;;;;;;;;;;;;19.62;26.04;99419.75;5356797;32;31711;-68
2023/04/13 08:24:52;;;;;;;;;;;;;;;19.24;26.74;99412.53;5352378;32;33192;-72
2023/04/13 08:27:54;;;;;;;;;;;;;;;20.00;25.30;99421.53;5355440;32;34736;-78
2023/04/13 08:30:56;;;;;;;;;;;;;;;19.23;25.80;99408.19;5329781;32;34478;-70
2023/04/13 08:34:01;;;;;;;;;;;;;;;17.92;27.56;99427.69;5346457;32;34956;-67
2023/04/13 08:37:04;;;;;;;;;;;;;;;17.56;27.97;99433.28;5347492;32;33311;-74
2023/04/13 08:40:06;;;;;;;;;;;;;;;17.08;28.91;99435.50;5344995;32;34447;-74
2023/04/13 08:43:08;;;;;;;;;;;;;;;16.79;29.46;99427.22;5346120;32;33314;-71
2023/04/13 08:46:14;;;;;;;;;;;;;;;17.03;28.98;99424.41;5353415;32;44365;-67
2023/04/13 08:49:17;;;;;;;;;;;;;;;18.10;27.58;99418.16;5349924;32;35324;-72
2023/04/13 08:52:18;;;;;;;;;;;;;;;18.26;27.17;99415.03;5357034;32;33935;-69
2023/04/13 08:55:20;;;;;;;;;;;;;;;18.71;27.01;99410.19;5333776;32;34054;-79
2023/04/13 08:58:24;;;;;;;;;;;;;;;17.19;28.46;99403.59;5349984;32;33389;-72
2023/04/13 09:01:26;;;;;;;;;;;;;;;18.20;27.34;99411.06;5349011;32;33372;-70
2023/04/13 09:04:30;;;;;;;;;;;;;;;18.13;27.49;99416.06;5339300;32;33954;-74
2023/04/13 09:07:35;;;;;;;;;;;;;;;17.37;28.64;99408.34;5356853;32;35799;-76
2023/04/13 09:10:37;;;;;;;;;;;;;;;17.73;28.88;99400.03;5351232;32;34674;-75
2023/04/13 09:13:40;;;;;;;;;;;;;;;18.63;27.56;99407.34;5353429;32;33103;-77
2023/04/13 09:16:42;;;;;;;;;;;;;;;19.12;27.31;99397.66;5354512;32;46248;-75
2023/04/13 09:19:44;;;;;;;;;;;;;;;19.36;26.53;99399.94;5343668;32;34554;-68
2023/04/13 09:22:47;;;;;;;;;;;;;;;20.81;24.10;99389.78;5349396;32;33209;-73
2023/04/13 09:25:49;;;;;;;;;;;;;;;20.88;23.75;99392.69;5347406;32;33319;-70
2023/04/13 09:28:55;;;;;;;;;;;;;;;21.91;22.47;99380.62;5349399;32;33538;-62
2023/04/13 09:31:57;;;;;;;;;;;;;;;21.75;22.59;99377.84;5327017;32;34552;-67
2023/04/13 09:34:59;;;;;;;;;;;;;;;22.28;22.04;99379.53;5358156;32;34475;-70
2023/04/13 09:38:03;;;;;;;;;;;;;;;23.40;19.81;99376.56;5346218;32;33148;-69
2023/04/13 09:41:05;;;;;;;;;;;;;;;21.72;21.28;99384.34;5355713;32;34440;-68
2023/04/13 09:44:19;;;;;;;;;;;;;;;21.68;21.50;99377.63;5351508;32;33111;-71
2023/04/13 09:47:21;;;;;;;;;;;;;;;22.92;20.43;99372.78;5349205;32;33150;-73
2023/04/13 09:50:27;;;;;;;;;;;;;;;21.78;21.22;99382.88;5358759;32;34602;-81
2023/04/13 09:53:41;;;;;;;;;;;;;;;21.62;21.76;99375.56;5338405;32;34597;-68
2023/04/13 09:56:43;;;;;;;;;;;;;;;22.14;21.22;99373.78;5359335;32;44809;-77
2023/04/13 09:59:45;;;;;;;;;;;;;;;21.25;22.25;99379.25;5343065;32;33926;-70
2023/04/13 10:02:48;;;;;;;;;;;;;;;21.18;22.04;99371.97;5348574;32;34516;-72
2023/04/13 10:05:51;;;;;;;;;;;;;;;21.30;22.12;99371.59;5357727;32;33175;-69
2023/04/13 10:09:01;;;;;;;;;;;;;;;21.10;22.24;99367.38;5341206;32;34397;-66
2023/04/13 10:12:03;;;;;;;;;;;;;;;20.94;22.58;99369.91;5343679;32;35908;-77
2023/04/13 10:15:20;;;;;;;;;;;;;;;21.00;22.65;99367.47;5344957;32;34552;-71
2023/04/13 10:18:44;;;;;;;;;;;;;;;20.36;23.93;99367.50;5356078;32;33385;-77
2023/04/13 10:21:48;;;;;;;;;;;;;;;20.47;23.77;99362.84;5338941;32;45043;-69
2023/04/13 10:24:53;;;;;;;;;;;;;;;20.84;23.55;99367.28;5344307;32;33841;-70
2023/04/13 10:27:57;;;;;;;;;;;;;;;20.93;23.21;99361.06;5355670;32;33797;-71
2023/04/13 10:31:01;;;;;;;;;;;;;;;19.40;24.99;99370.22;5328302;32;33047;-69
2023/04/13 10:34:04;;;;;;;;;;;;;;;19.55;25.07;99383.94;5350646;32;34518;-68
2023/04/13 10:37:15;;;;;;;;;;;;;;;20.06;24.74;99377.44;5347876;32;33307;-70
2023/04/13 10:40:17;;;;;;;;;;;;;;;19.82;25.27;99377.06;5352971;32;46811;-68
2023/04/13 10:43:25;;;;;;;;;;;;;;;19.22;25.94;99363.91;5348231;32;33401;-70
2023/04/13 10:46:28;;;;;;;;;;;;;;;18.74;27.06;99377.13;5344268;32;34515;-68
2023/04/13 10:49:30;;;;;;;;;;;;;;;18.84;27.28;99378.00;5344779;32;33512;-75
2023/04/13 10:52:32;;;;;;;;;;;;;;;19.08;26.54;99374.97;5347788;32;33326;-72
2023/04/13 10:55:35;;;;;;;;;;;;;;;18.50;27.67;99364.16;5357905;32;33188;-70
2023/04/13 10:58:37;;;;;;;;;;;;;;;18.32;28.04;99353.31;5353637;32;33383;-75
2023/04/13 11:01:40;;;;;;;;;;;;;;;18.81;27.52;99346.34;5347339;32;34017;-76
2023/04/13 11:04:43;;;;;;;;;;;;;;;18.59;27.66;99348.22;5355815;32;46186;-68
2023/04/13 11:07:46;;;;;;;;;;;;;;;18.51;28.26;99355.19;5347474;32;33315;-73
2023/04/13 11:10:52;;;;;;;;;;;;;;;18.49;28.37;99351.84;5350812;32;33419;-74
2023/04/13 11:13:54;;;;;;;;;;;;;;;19.03;27.98;99340.75;5350862;32;33169;-69
2023/04/13 11:16:56;;;;;;;;;;;;;;;18.75;28.43;99347.75;5348686;32;34361;-66
2023/04/13 11:20:00;;;;;;;;;;;;;;;20.14;26.37;99337.53;5345500;32;33206;-68
2023/04/13 11:23:04;;;;;;;;;;;;;;;20.07;26.71;99341.78;5335488;32;34406;-68
2023/04/13 11:26:07;;;;;;;;;;;;;;;20.91;25.55;99333.62;5357283;32;34646;-66
2023/04/13 11:29:16;;;;;;;;;;;;;;;21.33;25.15;99331.22;5346345;32;33142;-73
2023/04/13 11:32:18;;;;;;;;;;;;;;;21.31;25.07;99332.34;5343625;32;44622;-84
2023/04/13 11:35:22;;;;;;;;;;;;;;;20.82;25.70;99321.19;5352370;32;34609;-70
2023/04/13 11:38:24;;;;;;;;;;;;;;;21.51;25.23;99323.19;5353207;32;33062;-77
2023/04/13 11:41:27;;;;;;;;;;;;;;;21.06;25.75;99320.59;5358522;32;33427;-68
2023/04/13 11:44:29;;;;;;;;;;;;;;;22.22;24.23;99315.94;5345358;32;33384;-69
2023/04/13 11:47:31;;;;;;;;;;;;;;;20.50;25.53;99311.00;5353920;32;33113;-73
2023/04/13 11:50:34;;;;;;;;;;;;;;;21.54;24.21;99298.81;5349087;32;31823;-67
2023/04/13 11:53:37;;;;;;;;;;;;;;;20.99;25.19;99316.84;5358821;32;34670;-73
2023/04/13 11:56:39;;;;;;;;;;;;;;;21.08;25.17;99313.28;5354907;32;33083;-69
2023/04/13 11:59:41;;;;;;;;;;;;;;;21.99;23.78;99308.44;5337723;32;42600;-71
2023/04/13 12:02:43;;;;;;;;;;;;;;;21.44;24.50;99299.87;5357387;32;33282;-69
2023/04/13 12:06:02;;;;;;;;;;;;;;;21.26;24.34;99291.87;5346924;32;33384;-71
2023/04/13 12:09:08;;;;;;;;;;;;;;;22.73;22.34;99298.03;5352543;32;34499;-76
2023/04/13 12:12:23;;;;;;;;;;;;;;;21.86;23.25;99281.28;5348623;32;46995;-75
2023/04/13 12:15:28;;;;;;;;;;;;;;;21.95;23.35;99299.06;5350769;32;35234;-70
2023/04/13 12:18:50;;;;;;;;;;;;;;;21.32;24.30;99288.62;5354090;32;32683;-78
2023/04/13 12:21:56;;;;;;;;;;;;;;;21.74;23.81;99287.91;5350926;32;33264;-71
2023/04/13 12:25:00;;;;;;;;;;;;;;;21.40;24.24;99282.50;5355700;32;33871;-69
2023/04/13 12:28:03;;;;;;;;;;;;;;;21.06;24.79;99284.03;5350493;32;34477;-73
2023/04/13 12:31:08;;;;;;;;;;;;;;;20.45;25.69;99282.09;5331130;32;33290;-70
2023/04/13 12:34:11;;;;;;;;;;;;;;;21.26;24.49;99286.56;5352720;32;45942;-78
2023/04/13 12:37:13;;;;;;;;;;;;;;;21.15;24.83;99278.75;5350238;32;32692;-67
2023/04/13 12:40:15;;;;;;;;;;;;;;;21.54;24.65;99280.09;5342468;32;37122;-74
2023/04/13 12:43:17;;;;;;;;;;;;;;;20.92;25.37;99273.88;5350727;32;33163;-70
2023/04/13 12:46:19;;;;;;;;;;;;;;;20.69;25.86;99262.00;5349275;32;33435;-76
2023/04/13 12:49:22;;;;;;;;;;;;;;;21.18;25.33;99265.09;5349277;32;33160;-74
2023/04/13 12:52:27;;;;;;;;;;;;;;;21.45;24.83;99258.81;5352841;32;33099;-72
2023/04/13 12:55:29;;;;;;;;;;;;;;;20.89;25.52;99250.16;5354478;32;34330;-70
2023/04/13 12:58:31;;;;;;;;;;;;;;;20.68;25.56;99254.97;5345862;32;33287;-74
2023/04/13 13:01:36;;;;;;;;;;;;;;;20.65;25.82;99255.25;5354579;32;32758;-69
2023/04/13 13:04:39;;;;;;;;;;;;;;;20.50;26.16;99247.78;5349033;32;32917;-70
2023/04/13 13:07:41;;;;;;;;;;;;;;;20.73;25.95;99252.66;5361016;32;45195;-69
2023/04/13 13:10:43;;;;;;;;;;;;;;;20.00;26.47;99255.34;5333900;32;35871;-70
2023/04/13 13:13:45;;;;;;;;;;;;;;;21.47;24.94;99243.47;5350488;32;33282;-72
2023/04/13 13:16:50;;;;;;;;;;;;;;;21.50;24.94;99246.63;5351722;32;33376;-80
2023/04/13 13:19:53;;;;;;;;;;;;;;;21.90;24.06;99238.03;5350339;32;33284;-67
2023/04/13 13:22:56;;;;;;;;;;;;;;;22.02;23.85;99235.88;5354231;32;34032;-72
2023/04/13 13:25:58;;;;;;;;;;;;;;;21.93;24.16;99236.03;5331846;32;32634;-68
2023/04/13 13:29:05;;;;;;;;;;;;;;;20.76;25.33;99252.38;5349150;32;34049;-67
2023/04/13 13:32:07;;;;;;;;;;;;;;;22.14;23.40;99242.66;5332931;32;36314;-77
2023/04/13 13:35:09;;;;;;;;;;;;;;;21.82;23.72;99234.47;5343324;32;34524;-69
2023/04/13 13:38:11;;;;;;;;;;;;;;;21.77;23.86;99231.44;5355455;32;44626;-69
2023/04/13 13:41:13;;;;;;;;;;;;;;;21.13;24.48;99216.66;5344747;32;31467;-69
2023/04/13 13:44:15;;;;;;;;;;;;;;;21.15;24.40;99230.69;5354155;32;32423;-68
2023/04/13 13:47:18;;;;;;;;;;;;;;;21.46;24.08;99215.06;5346248;32;33867;-70
2023/04/13 13:50:20;;;;;;;;;;;;;;;19.76;26.36;99218.53;5352115;32;33198;-71
2023/04/13 13:53:22;;;;;;;;;;;;;;;20.77;24.88;99206.00;5346680;32;34589;-70
2023/04/13 13:56:24;;;;;;;;;;;;;;;21.65;23.58;99219.34;5345561;32;34919;-68
2023/04/13 13:59:26;;;;;;;;;;;;;;;21.72;23.53;99215.03;5342810;32;32258;-71
2023/04/13 14:02:28;;;;;;;;;;;;;;;21.08;24.28;99214.44;5341381;32;34580;-70
2023/04/13 14:05:31;;;;;;;;;;;;;;;22.04;23.39;99217.00;5348174;32;34394;-72
2023/04/13 14:08:33;;;;;;;;;;;;;;;21.23;24.16;99218.22;5341240;32;34344;-64
2023/04/13 14:11:35;;;;;;;;;;;;;;;21.06;24.56;99198.56;5348199;32;34236;-64
2023/04/13 14:14:37;;;;;;;;;;;;;;;20.89;24.88;99202.09;5329315;32;33921;-69
2023/04/13 14:17:39;;;;;;;;;;;;;;;21.93;23.52;99182.53;5342116;32;33035;-72
2023/04/13 14:20:42;;;;;;;;;;;;;;;21.27;24.49;99197.38;5344844;32;44344;-63
2023/04/13 14:23:44;;;;;;;;;;;;;;;21.51;24.04;99194.88;5316461;32;32804;-69
2023/04/13 14:26:46;;;;;;;;;;;;;;;21.31;24.37;99199.56;5328859;32;33600;-69
2023/04/13 14:29:48;;;;;;;;;;;;;;;20.83;25.01;99203.53;5300850;32;34422;-63
2023/04/13 14:32:50;;;;;;;;;;;;;;;20.80;25.31;99206.53;5304670;32;34666;-63
2023/04/13 14:35:52;;;;;;;;;;;;;;;20.76;25.42;99201.66;5323630;32;32695;-63
2023/04/13 14:38:55;;;;;;;;;;;;;;;20.62;25.75;99199.53;5317033;32;33948;-71
2023/04/13 14:41:57;;;;;;;;;;;;;;;20.13;26.46;99198.97;5326189;32;33253;-70
2023/04/13 14:44:59;;;;;;;;;;;;;;;20.55;25.86;99193.97;5317587;32;33070;-69
2023/04/13 14:48:00;;;;;;;;;;;;;;;19.24;27.83;99198.59;5321540;32;35472;-69
2023/04/13 14:51:03;;;;;;;;;;;;;;;20.54;26.07;99195.78;5322881;32;31370;-64
2023/04/13 14:54:05;;;;;;;;;;;;;;;21.02;25.25;99197.19;5321540;32;34121;-63
2023/04/13 14:57:08;;;;;;;;;;;;;;;20.97;25.29;99196.81;5341802;32;33817;-69
2023/04/13 15:00:16;;;;;;;;;;;;;;;20.33;26.20;99197.84;5337363;32;47231;-63
2023/04/13 15:03:19;;;;;;;;;;;;;;;20.57;26.13;99199.97;5347111;32;34232;-69
2023/04/13 15:06:21;;;;;;;;;;;;;;;20.09;26.81;99200.25;5334282;32;34158;-64
2023/04/13 15:09:24;;;;;;;;;;;;;;;20.43;26.38;99198.63;5341979;32;33470;-70
2023/04/13 15:12:26;;;;;;;;;;;;;;;20.44;26.42;99202.97;5333503;32;34041;-63
2023/04/13 15:15:32;;;;;;;;;;;;;;;20.34;26.64;99204.88;5341345;32;35464;-69
2023/04/13 15:18:34;;;;;;;;;;;;;;;20.34;26.60;99202.19;5351048;32;34056;-64
2023/04/13 15:21:36;;;;;;;;;;;;;;;20.16;26.93;99206.69;5336505;32;34371;-69
2023/04/13 15:24:38;;;;;;;;;;;;;;;20.00;27.36;99212.66;5343269;32;33836;-65
2023/04/13 15:27:40;;;;;;;;;;;;;;;20.20;27.17;99210.72;5340493;32;43899;-62
2023/04/13 15:30:42;;;;;;;;;;;;;;;20.19;27.41;99211.72;5325081;32;33511;-64
2023/04/13 15:33:44;;;;;;;;;;;;;;;20.21;27.94;99212.41;5334574;32;33987;-65
2023/04/13 15:36:46;;;;;;;;;;;;;;;20.25;28.03;99205.78;5337043;32;34344;-70
2023/04/13 15:39:48;;;;;;;;;;;;;;;19.49;29.35;99196.16;5348850;32;33992;-64
2023/04/13 15:42:50;;;;;;;;;;;;;;;19.93;29.35;99217.75;5323793;32;34512;-69
2023/04/13 15:45:52;;;;;;;;;;;;;;;20.04;29.06;99216.72;5333241;32;35526;-73
2023/04/13 15:48:54;;;;;;;;;;;;;;;19.05;31.50;99223.44;5320268;32;33839;-69
2023/04/13 15:51:57;;;;;;;;;;;;;;;18.84;32.68;99224.44;5348198;32;33727;-69
2023/04/13 15:54:59;;;;;;;;;;;;;;;18.45;33.68;99218.25;5338730;32;33072;-73